sensor_id;sensor_type;location;lat;lon;timestamp;P1;P2;P0
62054;PMS5003;48653;51.742;-1.256;2023-04-09T00:01:55;29;24;
62054;PMS5003;48653;51.742;-1.256;2023-04-09T00:04:20;27;21;
62054;PMS5003;48653;51.742;-1.256;2023-04-09T00:06:46;29;26;
62054;PMS5003;48653;51.742;-1.256;2023-04-09T00:09:11;25;24;
62054;PMS5003;48653;51.742;-1.256;2023-04-09T00:11:37;31;28;
62054;PMS5003;48653;51.742;-1.256;2023-04-09T00:14:02;29;26;
62054;PMS5003;48653;51.742;-1.256;2023-04-09T00:16:28;26;22;
62054;PMS5003;48653;51.742;-1.256;2023-04-09T00:18:53;29;24;
62054;PMS5003;48653;51.742;-1.256;2023-04-09T00:21:19;29;25;
62054;PMS5003;48653;51.742;-1.256;2023-04-09T00:23:44;29;26;
62054;PMS5003;48653;51.742;-1.256;2023-04-09T00:26:10;32;30;
62054;PMS5003;48653;51.742;-1.256;2023-04-09T00:28:35;33;27;
62054;PMS5003;48653;51.742;-1.256;2023-04-09T00:31:01;32;29;
62054;PMS5003;48653;51.742;-1.256;2023-04-09T00:33:26;36;32;
62054;PMS5003;48653;51.742;-1.256;2023-04-09T00:35:52;34;28;
62054;PMS5003;48653;51.742;-1.256;2023-04-09T00:38:17;32;29;
62054;PMS5003;48653;51.742;-1.256;2023-04-09T00:40:42;26;25;
62054;PMS5003;48653;51.742;-1.256;2023-04-09T00:43:08;29;26;
62054;PMS5003;48653;51.742;-1.256;2023-04-09T00:45:34;28;25;
62054;PMS5003;48653;51.742;-1.256;2023-04-09T00:47:59;29;25;
62054;PMS5003;48653;51.742;-1.256;2023-04-09T00:50:24;26;24;
62054;PMS5003;48653;51.742;-1.256;2023-04-09T00:52:49;33;26;
62054;PMS5003;48653;51.742;-1.256;2023-04-09T00:55:15;35;31;
62054;PMS5003;48653;51.742;-1.256;2023-04-09T00:57:40;42;35;
62054;PMS5003;48653;51.742;-1.256;2023-04-09T01:00:06;43;34;
62054;PMS5003;48653;51.742;-1.256;2023-04-09T01:02:32;38;33;
62054;PMS5003;48653;51.742;-1.256;2023-04-09T01:04:57;40;33;
62054;PMS5003;48653;51.742;-1.256;2023-04-09T01:07:25;38;36;
62054;PMS5003;48653;51.742;-1.256;2023-04-09T01:09:49;39;32;
62054;PMS5003;48653;51.742;-1.256;2023-04-09T01:12:15;39;33;
62054;PMS5003;48653;51.742;-1.256;2023-04-09T01:14:42;46;36;
62054;PMS5003;48653;51.742;-1.256;2023-04-09T01:17:05;39;34;
62054;PMS5003;48653;51.742;-1.256;2023-04-09T01:19:34;42;39;
62054;PMS5003;48653;51.742;-1.256;2023-04-09T01:21:56;38;35;
62054;PMS5003;48653;51.742;-1.256;2023-04-09T01:24:25;41;37;
62054;PMS5003;48653;51.742;-1.256;2023-04-09T01:29:12;34;31;
62054;PMS5003;48653;51.742;-1.256;2023-04-09T01:31:38;41;37;
62054;PMS5003;48653;51.742;-1.256;2023-04-09T01:34:04;37;35;
62054;PMS5003;48653;51.742;-1.256;2023-04-09T01:36:29;37;36;
62054;PMS5003;48653;51.742;-1.256;2023-04-09T01:38:54;37;32;
62054;PMS5003;48653;51.742;-1.256;2023-04-09T01:41:20;37;37;
62054;PMS5003;48653;51.742;-1.256;2023-04-09T01:43:45;37;31;
62054;PMS5003;48653;51.742;-1.256;2023-04-09T01:46:11;38;32;
62054;PMS5003;48653;51.742;-1.256;2023-04-09T01:48:36;34;32;
62054;PMS5003;48653;51.742;-1.256;2023-04-09T01:51:02;31;30;
62054;PMS5003;48653;51.742;-1.256;2023-04-09T01:53:27;39;36;
62054;PMS5003;48653;51.742;-1.256;2023-04-09T01:55:53;31;28;
62054;PMS5003;48653;51.742;-1.256;2023-04-09T01:58:18;36;32;
62054;PMS5003;48653;51.742;-1.256;2023-04-09T02:00:45;34;31;
62054;PMS5003;48653;51.742;-1.256;2023-04-09T02:03:11;37;33;
62054;PMS5003;48653;51.742;-1.256;2023-04-09T02:05:36;38;33;
62054;PMS5003;48653;51.742;-1.256;2023-04-09T02:08:00;42;31;
62054;PMS5003;48653;51.742;-1.256;2023-04-09T02:10:26;36;32;
62054;PMS5003;48653;51.742;-1.256;2023-04-09T02:12:52;37;32;
62054;PMS5003;48653;51.742;-1.256;2023-04-09T02:15:18;34;29;
62054;PMS5003;48653;51.742;-1.256;2023-04-09T02:17:43;33;29;
62054;PMS5003;48653;51.742;-1.256;2023-04-09T02:20:09;35;35;
62054;PMS5003;48653;51.742;-1.256;2023-04-09T02:22:34;37;28;
62054;PMS5003;48653;51.742;-1.256;2023-04-09T02:25:00;31;25;
62054;PMS5003;48653;51.742;-1.256;2023-04-09T02:27:25;28;23;
62054;PMS5003;48653;51.742;-1.256;2023-04-09T02:29:51;31;29;
62054;PMS5003;48653;51.742;-1.256;2023-04-09T02:32:16;31;28;
62054;PMS5003;48653;51.742;-1.256;2023-04-09T02:34:41;30;28;
62054;PMS5003;48653;51.742;-1.256;2023-04-09T02:37:07;34;30;
62054;PMS5003;48653;51.742;-1.256;2023-04-09T02:39:32;30;28;
62054;PMS5003;48653;51.742;-1.256;2023-04-09T02:41:58;31;29;
62054;PMS5003;48653;51.742;-1.256;2023-04-09T02:44:23;31;26;
62054;PMS5003;48653;51.742;-1.256;2023-04-09T02:46:49;33;30;
62054;PMS5003;48653;51.742;-1.256;2023-04-09T02:49:14;37;33;
62054;PMS5003;48653;51.742;-1.256;2023-04-09T02:51:40;34;32;
62054;PMS5003;48653;51.742;-1.256;2023-04-09T02:54:05;32;29;
62054;PMS5003;48653;51.742;-1.256;2023-04-09T02:56:31;35;28;
62054;PMS5003;48653;51.742;-1.256;2023-04-09T02:58:56;37;29;
62054;PMS5003;48653;51.742;-1.256;2023-04-09T03:01:21;31;31;
62054;PMS5003;48653;51.742;-1.256;2023-04-09T03:03:47;34;32;
62054;PMS5003;48653;51.742;-1.256;2023-04-09T03:06:12;35;34;
62054;PMS5003;48653;51.742;-1.256;2023-04-09T03:08:38;29;27;
62054;PMS5003;48653;51.742;-1.256;2023-04-09T03:11:04;34;27;
62054;PMS5003;48653;51.742;-1.256;2023-04-09T03:13:29;26;26;
62054;PMS5003;48653;51.742;-1.256;2023-04-09T03:15:55;32;29;
62054;PMS5003;48653;51.742;-1.256;2023-04-09T03:18:21;34;30;
62054;PMS5003;48653;51.742;-1.256;2023-04-09T03:20:47;31;30;
62054;PMS5003;48653;51.742;-1.256;2023-04-09T03:23:12;33;30;
62054;PMS5003;48653;51.742;-1.256;2023-04-09T03:25:38;38;28;
62054;PMS5003;48653;51.742;-1.256;2023-04-09T03:28:03;33;33;
62054;PMS5003;48653;51.742;-1.256;2023-04-09T03:30:29;27;26;
62054;PMS5003;48653;51.742;-1.256;2023-04-09T03:32:54;35;33;
62054;PMS5003;48653;51.742;-1.256;2023-04-09T03:35:20;35;34;
62054;PMS5003;48653;51.742;-1.256;2023-04-09T03:37:45;34;31;
62054;PMS5003;48653;51.742;-1.256;2023-04-09T03:40:11;33;30;
62054;PMS5003;48653;51.742;-1.256;2023-04-09T03:42:35;33;31;
62054;PMS5003;48653;51.742;-1.256;2023-04-09T03:45:01;32;27;
62054;PMS5003;48653;51.742;-1.256;2023-04-09T03:47:27;28;25;
62054;PMS5003;48653;51.742;-1.256;2023-04-09T03:49:52;32;29;
62054;PMS5003;48653;51.742;-1.256;2023-04-09T03:52:17;31;27;
62054;PMS5003;48653;51.742;-1.256;2023-04-09T03:54:42;27;26;
62054;PMS5003;48653;51.742;-1.256;2023-04-09T03:57:08;35;30;
62054;PMS5003;48653;51.742;-1.256;2023-04-09T03:59:33;38;30;
62054;PMS5003;48653;51.742;-1.256;2023-04-09T04:01:58;35;29;
62054;PMS5003;48653;51.742;-1.256;2023-04-09T04:04:24;32;31;
62054;PMS5003;48653;51.742;-1.256;2023-04-09T04:06:49;35;31;
62054;PMS5003;48653;51.742;-1.256;2023-04-09T04:09:15;34;31;
62054;PMS5003;48653;51.742;-1.256;2023-04-09T04:11:40;30;28;
62054;PMS5003;48653;51.742;-1.256;2023-04-09T04:14:05;33;27;
62054;PMS5003;48653;51.742;-1.256;2023-04-09T04:16:31;43;36;
62054;PMS5003;48653;51.742;-1.256;2023-04-09T04:18:57;31;27;
62054;PMS5003;48653;51.742;-1.256;2023-04-09T04:21:22;33;29;
62054;PMS5003;48653;51.742;-1.256;2023-04-09T04:23:47;40;32;
62054;PMS5003;48653;51.742;-1.256;2023-04-09T04:26:13;35;28;
62054;PMS5003;48653;51.742;-1.256;2023-04-09T04:28:39;36;28;
62054;PMS5003;48653;51.742;-1.256;2023-04-09T04:31:06;34;30;
62054;PMS5003;48653;51.742;-1.256;2023-04-09T04:33:30;39;32;
62054;PMS5003;48653;51.742;-1.256;2023-04-09T04:38:21;36;30;
62054;PMS5003;48653;51.742;-1.256;2023-04-09T04:40:46;35;31;
62054;PMS5003;48653;51.742;-1.256;2023-04-09T04:43:11;30;29;
62054;PMS5003;48653;51.742;-1.256;2023-04-09T04:45:37;40;35;
62054;PMS5003;48653;51.742;-1.256;2023-04-09T04:48:03;39;36;
62054;PMS5003;48653;51.742;-1.256;2023-04-09T04:50:28;40;33;
62054;PMS5003;48653;51.742;-1.256;2023-04-09T04:52:54;35;33;
62054;PMS5003;48653;51.742;-1.256;2023-04-09T04:55:20;33;28;
62054;PMS5003;48653;51.742;-1.256;2023-04-09T04:57:45;29;26;
62054;PMS5003;48653;51.742;-1.256;2023-04-09T05:00:11;31;28;
62054;PMS5003;48653;51.742;-1.256;2023-04-09T05:02:36;34;31;
62054;PMS5003;48653;51.742;-1.256;2023-04-09T05:05:02;39;35;
62054;PMS5003;48653;51.742;-1.256;2023-04-09T05:07:27;32;30;
62054;PMS5003;48653;51.742;-1.256;2023-04-09T05:09:53;41;35;
62054;PMS5003;48653;51.742;-1.256;2023-04-09T05:12:18;43;36;
62054;PMS5003;48653;51.742;-1.256;2023-04-09T05:14:43;38;35;
62054;PMS5003;48653;51.742;-1.256;2023-04-09T05:17:09;36;33;
62054;PMS5003;48653;51.742;-1.256;2023-04-09T05:19:35;41;36;
62054;PMS5003;48653;51.742;-1.256;2023-04-09T05:22:00;41;35;
62054;PMS5003;48653;51.742;-1.256;2023-04-09T05:24:26;43;38;
62054;PMS5003;48653;51.742;-1.256;2023-04-09T05:26:51;43;39;
62054;PMS5003;48653;51.742;-1.256;2023-04-09T05:29:17;38;34;
62054;PMS5003;48653;51.742;-1.256;2023-04-09T05:31:42;44;37;
62054;PMS5003;48653;51.742;-1.256;2023-04-09T05:34:07;48;42;
62054;PMS5003;48653;51.742;-1.256;2023-04-09T05:36:33;39;35;
62054;PMS5003;48653;51.742;-1.256;2023-04-09T05:38:58;47;40;
62054;PMS5003;48653;51.742;-1.256;2023-04-09T05:41:24;43;38;
62054;PMS5003;48653;51.742;-1.256;2023-04-09T05:43:49;40;39;
62054;PMS5003;48653;51.742;-1.256;2023-04-09T05:46:15;49;37;
62054;PMS5003;48653;51.742;-1.256;2023-04-09T05:48:41;41;37;
62054;PMS5003;48653;51.742;-1.256;2023-04-09T05:51:06;41;39;
62054;PMS5003;48653;51.742;-1.256;2023-04-09T05:53:32;40;36;
62054;PMS5003;48653;51.742;-1.256;2023-04-09T05:55:57;44;36;
62054;PMS5003;48653;51.742;-1.256;2023-04-09T05:58:22;50;41;
62054;PMS5003;48653;51.742;-1.256;2023-04-09T06:00:47;52;43;
62054;PMS5003;48653;51.742;-1.256;2023-04-09T06:03:13;54;44;
62054;PMS5003;48653;51.742;-1.256;2023-04-09T06:05:38;51;40;
62054;PMS5003;48653;51.742;-1.256;2023-04-09T06:08:04;52;46;
62054;PMS5003;48653;51.742;-1.256;2023-04-09T06:10:30;55;43;
62054;PMS5003;48653;51.742;-1.256;2023-04-09T06:12:55;54;48;
62054;PMS5003;48653;51.742;-1.256;2023-04-09T06:15:20;54;45;
62054;PMS5003;48653;51.742;-1.256;2023-04-09T06:17:45;53;42;
62054;PMS5003;48653;51.742;-1.256;2023-04-09T06:20:11;56;46;
62054;PMS5003;48653;51.742;-1.256;2023-04-09T06:22:37;54;46;
62054;PMS5003;48653;51.742;-1.256;2023-04-09T06:25:03;54;45;
62054;PMS5003;48653;51.742;-1.256;2023-04-09T06:27:28;54;47;
62054;PMS5003;48653;51.742;-1.256;2023-04-09T06:29:54;64;50;
62054;PMS5003;48653;51.742;-1.256;2023-04-09T06:32:20;57;48;
62054;PMS5003;48653;51.742;-1.256;2023-04-09T06:34:45;57;45;
62054;PMS5003;48653;51.742;-1.256;2023-04-09T06:37:10;60;51;
62054;PMS5003;48653;51.742;-1.256;2023-04-09T06:39:36;60;53;
62054;PMS5003;48653;51.742;-1.256;2023-04-09T06:42:02;67;50;
62054;PMS5003;48653;51.742;-1.256;2023-04-09T06:44:26;56;48;
62054;PMS5003;48653;51.742;-1.256;2023-04-09T06:46:52;52;46;
62054;PMS5003;48653;51.742;-1.256;2023-04-09T06:49:17;64;55;
62054;PMS5003;48653;51.742;-1.256;2023-04-09T06:51:42;67;53;
62054;PMS5003;48653;51.742;-1.256;2023-04-09T06:54:08;60;50;
62054;PMS5003;48653;51.742;-1.256;2023-04-09T06:56:34;66;52;
62054;PMS5003;48653;51.742;-1.256;2023-04-09T06:58:59;63;50;
62054;PMS5003;48653;51.742;-1.256;2023-04-09T07:01:24;60;55;
62054;PMS5003;48653;51.742;-1.256;2023-04-09T07:03:50;64;55;
62054;PMS5003;48653;51.742;-1.256;2023-04-09T07:06:15;74;59;
62054;PMS5003;48653;51.742;-1.256;2023-04-09T07:08:41;77;63;
62054;PMS5003;48653;51.742;-1.256;2023-04-09T07:11:06;74;57;
62054;PMS5003;48653;51.742;-1.256;2023-04-09T07:13:32;70;59;
62054;PMS5003;48653;51.742;-1.256;2023-04-09T07:15:57;65;55;
62054;PMS5003;48653;51.742;-1.256;2023-04-09T07:18:23;70;58;
62054;PMS5003;48653;51.742;-1.256;2023-04-09T07:20:48;76;61;
62054;PMS5003;48653;51.742;-1.256;2023-04-09T07:23:13;60;54;
62054;PMS5003;48653;51.742;-1.256;2023-04-09T07:25:39;70;56;
62054;PMS5003;48653;51.742;-1.256;2023-04-09T07:28:04;67;52;
62054;PMS5003;48653;51.742;-1.256;2023-04-09T07:30:29;76;60;
62054;PMS5003;48653;51.742;-1.256;2023-04-09T07:32:55;91;65;
62054;PMS5003;48653;51.742;-1.256;2023-04-09T07:35:20;62;57;
62054;PMS5003;48653;51.742;-1.256;2023-04-09T07:37:45;72;60;
62054;PMS5003;48653;51.742;-1.256;2023-04-09T07:40:11;67;54;
62054;PMS5003;48653;51.742;-1.256;2023-04-09T07:42:37;69;60;
62054;PMS5003;48653;51.742;-1.256;2023-04-09T07:45:03;78;63;
62054;PMS5003;48653;51.742;-1.256;2023-04-09T07:47:28;69;61;
62054;PMS5003;48653;51.742;-1.256;2023-04-09T07:49:53;77;59;
62054;PMS5003;48653;51.742;-1.256;2023-04-09T07:52:19;74;61;
62054;PMS5003;48653;51.742;-1.256;2023-04-09T07:54:44;70;57;
62054;PMS5003;48653;51.742;-1.256;2023-04-09T07:57:09;65;54;
62054;PMS5003;48653;51.742;-1.256;2023-04-09T07:59:35;67;59;
62054;PMS5003;48653;51.742;-1.256;2023-04-09T08:02:00;68;53;
62054;PMS5003;48653;51.742;-1.256;2023-04-09T08:04:26;67;56;
62054;PMS5003;48653;51.742;-1.256;2023-04-09T08:06:51;79;61;
62054;PMS5003;48653;51.742;-1.256;2023-04-09T08:09:16;67;58;
62054;PMS5003;48653;51.742;-1.256;2023-04-09T08:11:42;68;56;
62054;PMS5003;48653;51.742;-1.256;2023-04-09T08:14:07;74;54;
62054;PMS5003;48653;51.742;-1.256;2023-04-09T08:16:33;59;52;
62054;PMS5003;48653;51.742;-1.256;2023-04-09T08:18:58;71;55;
62054;PMS5003;48653;51.742;-1.256;2023-04-09T08:21:24;73;54;
62054;PMS5003;48653;51.742;-1.256;2023-04-09T08:23:49;59;55;
62054;PMS5003;48653;51.742;-1.256;2023-04-09T08:26:15;59;52;
62054;PMS5003;48653;51.742;-1.256;2023-04-09T08:28:40;75;56;
62054;PMS5003;48653;51.742;-1.256;2023-04-09T08:31:05;63;55;
62054;PMS5003;48653;51.742;-1.256;2023-04-09T08:33:31;68;56;
62054;PMS5003;48653;51.742;-1.256;2023-04-09T08:35:57;62;53;
62054;PMS5003;48653;51.742;-1.256;2023-04-09T08:38:22;59;51;
62054;PMS5003;48653;51.742;-1.256;2023-04-09T08:40:47;60;49;
62054;PMS5003;48653;51.742;-1.256;2023-04-09T08:43:13;61;51;
62054;PMS5003;48653;51.742;-1.256;2023-04-09T08:45:38;61;51;
62054;PMS5003;48653;51.742;-1.256;2023-04-09T08:48:04;57;47;
62054;PMS5003;48653;51.742;-1.256;2023-04-09T08:50:29;56;48;
62054;PMS5003;48653;51.742;-1.256;2023-04-09T08:52:54;63;48;
62054;PMS5003;48653;51.742;-1.256;2023-04-09T08:55:19;60;50;
62054;PMS5003;48653;51.742;-1.256;2023-04-09T08:57:45;62;53;
62054;PMS5003;48653;51.742;-1.256;2023-04-09T09:00:11;53;46;
62054;PMS5003;48653;51.742;-1.256;2023-04-09T09:02:35;59;54;
62054;PMS5003;48653;51.742;-1.256;2023-04-09T09:05:00;55;48;
62054;PMS5003;48653;51.742;-1.256;2023-04-09T09:07:26;56;47;
62054;PMS5003;48653;51.742;-1.256;2023-04-09T09:09:52;65;53;
62054;PMS5003;48653;51.742;-1.256;2023-04-09T09:14:42;55;47;
62054;PMS5003;48653;51.742;-1.256;2023-04-09T09:17:08;60;51;
62054;PMS5003;48653;51.742;-1.256;2023-04-09T09:19:33;54;45;
62054;PMS5003;48653;51.742;-1.256;2023-04-09T09:21:59;60;49;
62054;PMS5003;48653;51.742;-1.256;2023-04-09T09:24:24;56;50;
62054;PMS5003;48653;51.742;-1.256;2023-04-09T09:26:50;60;48;
62054;PMS5003;48653;51.742;-1.256;2023-04-09T09:29:16;62;49;
62054;PMS5003;48653;51.742;-1.256;2023-04-09T09:31:46;59;48;
62054;PMS5003;48653;51.742;-1.256;2023-04-09T09:34:07;58;53;
62054;PMS5003;48653;51.742;-1.256;2023-04-09T09:36:32;63;48;
62054;PMS5003;48653;51.742;-1.256;2023-04-09T09:38:57;55;45;
62054;PMS5003;48653;51.742;-1.256;2023-04-09T09:41:22;49;42;
62054;PMS5003;48653;51.742;-1.256;2023-04-09T09:43:48;58;48;
62054;PMS5003;48653;51.742;-1.256;2023-04-09T09:46:14;53;45;
62054;PMS5003;48653;51.742;-1.256;2023-04-09T09:48:38;59;46;
62054;PMS5003;48653;51.742;-1.256;2023-04-09T09:51:06;55;44;
62054;PMS5003;48653;51.742;-1.256;2023-04-09T09:53:30;58;47;
62054;PMS5003;48653;51.742;-1.256;2023-04-09T09:55:55;62;50;
62054;PMS5003;48653;51.742;-1.256;2023-04-09T09:58:21;54;46;
62054;PMS5003;48653;51.742;-1.256;2023-04-09T10:00:45;48;43;
62054;PMS5003;48653;51.742;-1.256;2023-04-09T10:03:13;50;42;
62054;PMS5003;48653;51.742;-1.256;2023-04-09T10:05:36;54;44;
62054;PMS5003;48653;51.742;-1.256;2023-04-09T10:08:02;51;43;
62054;PMS5003;48653;51.742;-1.256;2023-04-09T10:10:27;50;41;
62054;PMS5003;48653;51.742;-1.256;2023-04-09T10:12:52;51;41;
62054;PMS5003;48653;51.742;-1.256;2023-04-09T10:15:18;48;43;
62054;PMS5003;48653;51.742;-1.256;2023-04-09T10:17:44;55;42;
62054;PMS5003;48653;51.742;-1.256;2023-04-09T10:20:10;49;43;
62054;PMS5003;48653;51.742;-1.256;2023-04-09T10:22:35;46;39;
62054;PMS5003;48653;51.742;-1.256;2023-04-09T10:25:00;50;43;
62054;PMS5003;48653;51.742;-1.256;2023-04-09T10:27:25;42;40;
62054;PMS5003;48653;51.742;-1.256;2023-04-09T10:29:51;49;42;
62054;PMS5003;48653;51.742;-1.256;2023-04-09T10:32:17;46;40;
62054;PMS5003;48653;51.742;-1.256;2023-04-09T10:34:42;43;40;
62054;PMS5003;48653;51.742;-1.256;2023-04-09T10:37:08;48;40;
62054;PMS5003;48653;51.742;-1.256;2023-04-09T10:39:33;48;35;
62054;PMS5003;48653;51.742;-1.256;2023-04-09T10:41:59;46;42;
62054;PMS5003;48653;51.742;-1.256;2023-04-09T10:44:24;43;38;
62054;PMS5003;48653;51.742;-1.256;2023-04-09T10:46:51;36;33;
62054;PMS5003;48653;51.742;-1.256;2023-04-09T10:49:16;45;40;
62054;PMS5003;48653;51.742;-1.256;2023-04-09T10:51:40;43;39;
62054;PMS5003;48653;51.742;-1.256;2023-04-09T10:56:32;41;36;
62054;PMS5003;48653;51.742;-1.256;2023-04-09T10:58:57;51;41;
62054;PMS5003;48653;51.742;-1.256;2023-04-09T11:01:23;38;34;
62054;PMS5003;48653;51.742;-1.256;2023-04-09T11:04:04;39;37;
62054;PMS5003;48653;51.742;-1.256;2023-04-09T11:06:13;41;33;
62054;PMS5003;48653;51.742;-1.256;2023-04-09T11:08:39;41;35;
62054;PMS5003;48653;51.742;-1.256;2023-04-09T11:11:04;42;37;
62054;PMS5003;48653;51.742;-1.256;2023-04-09T11:13:30;41;36;
62054;PMS5003;48653;51.742;-1.256;2023-04-09T11:15:55;38;32;
62054;PMS5003;48653;51.742;-1.256;2023-04-09T11:18:21;47;41;
62054;PMS5003;48653;51.742;-1.256;2023-04-09T11:20:46;33;30;
62054;PMS5003;48653;51.742;-1.256;2023-04-09T11:23:12;34;28;
62054;PMS5003;48653;51.742;-1.256;2023-04-09T11:25:37;45;38;
62054;PMS5003;48653;51.742;-1.256;2023-04-09T11:28:03;39;32;
62054;PMS5003;48653;51.742;-1.256;2023-04-09T11:30:28;37;32;
62054;PMS5003;48653;51.742;-1.256;2023-04-09T11:32:53;34;32;
62054;PMS5003;48653;51.742;-1.256;2023-04-09T11:35:20;38;34;
62054;PMS5003;48653;51.742;-1.256;2023-04-09T11:37:44;39;33;
62054;PMS5003;48653;51.742;-1.256;2023-04-09T11:42:35;43;33;
62054;PMS5003;48653;51.742;-1.256;2023-04-09T11:45:00;37;33;
62054;PMS5003;48653;51.742;-1.256;2023-04-09T11:47:25;36;30;
62054;PMS5003;48653;51.742;-1.256;2023-04-09T11:49:51;31;30;
62054;PMS5003;48653;51.742;-1.256;2023-04-09T11:52:16;41;35;
62054;PMS5003;48653;51.742;-1.256;2023-04-09T11:54:42;38;35;
62054;PMS5003;48653;51.742;-1.256;2023-04-09T11:57:07;35;32;
62054;PMS5003;48653;51.742;-1.256;2023-04-09T11:59:33;32;31;
62054;PMS5003;48653;51.742;-1.256;2023-04-09T12:01:59;32;27;
62054;PMS5003;48653;51.742;-1.256;2023-04-09T12:04:24;35;31;
62054;PMS5003;48653;51.742;-1.256;2023-04-09T12:06:49;34;32;
62054;PMS5003;48653;51.742;-1.256;2023-04-09T12:09:15;35;30;
62054;PMS5003;48653;51.742;-1.256;2023-04-09T12:11:42;38;32;
62054;PMS5003;48653;51.742;-1.256;2023-04-09T12:14:05;34;33;
62054;PMS5003;48653;51.742;-1.256;2023-04-09T12:16:31;35;31;
62054;PMS5003;48653;51.742;-1.256;2023-04-09T12:18:59;38;29;
62054;PMS5003;48653;51.742;-1.256;2023-04-09T12:21:23;32;30;
62054;PMS5003;48653;51.742;-1.256;2023-04-09T12:23:46;33;30;
62054;PMS5003;48653;51.742;-1.256;2023-04-09T12:26:12;35;31;
62054;PMS5003;48653;51.742;-1.256;2023-04-09T12:28:37;28;23;
62054;PMS5003;48653;51.742;-1.256;2023-04-09T12:31:02;34;30;
62054;PMS5003;48653;51.742;-1.256;2023-04-09T12:33:27;32;31;
62054;PMS5003;48653;51.742;-1.256;2023-04-09T12:35:52;35;30;
62054;PMS5003;48653;51.742;-1.256;2023-04-09T12:38:18;29;28;
62054;PMS5003;48653;51.742;-1.256;2023-04-09T12:40:44;28;23;
62054;PMS5003;48653;51.742;-1.256;2023-04-09T12:43:09;32;30;
62054;PMS5003;48653;51.742;-1.256;2023-04-09T12:45:35;35;29;
62054;PMS5003;48653;51.742;-1.256;2023-04-09T12:48:00;35;31;
62054;PMS5003;48653;51.742;-1.256;2023-04-09T12:50:26;31;26;
62054;PMS5003;48653;51.742;-1.256;2023-04-09T12:52:51;30;28;
62054;PMS5003;48653;51.742;-1.256;2023-04-09T12:55:17;30;28;
62054;PMS5003;48653;51.742;-1.256;2023-04-09T12:57:43;30;29;
62054;PMS5003;48653;51.742;-1.256;2023-04-09T13:00:08;31;25;
62054;PMS5003;48653;51.742;-1.256;2023-04-09T13:02:32;24;24;
62054;PMS5003;48653;51.742;-1.256;2023-04-09T13:04:57;34;28;
62054;PMS5003;48653;51.742;-1.256;2023-04-09T13:07:23;27;26;
62054;PMS5003;48653;51.742;-1.256;2023-04-09T13:09:49;21;21;
62054;PMS5003;48653;51.742;-1.256;2023-04-09T13:12:14;30;26;
62054;PMS5003;48653;51.742;-1.256;2023-04-09T13:14:40;31;26;
62054;PMS5003;48653;51.742;-1.256;2023-04-09T13:17:05;27;25;
62054;PMS5003;48653;51.742;-1.256;2023-04-09T13:19:31;28;27;
62054;PMS5003;48653;51.742;-1.256;2023-04-09T13:21:56;31;29;
62054;PMS5003;48653;51.742;-1.256;2023-04-09T13:24:21;25;25;
62054;PMS5003;48653;51.742;-1.256;2023-04-09T13:26:47;28;24;
62054;PMS5003;48653;51.742;-1.256;2023-04-09T13:29:12;37;32;
62054;PMS5003;48653;51.742;-1.256;2023-04-09T13:31:38;25;23;
62054;PMS5003;48653;51.742;-1.256;2023-04-09T13:34:03;25;23;
62054;PMS5003;48653;51.742;-1.256;2023-04-09T13:36:29;25;24;
62054;PMS5003;48653;51.742;-1.256;2023-04-09T13:38:54;22;22;
62054;PMS5003;48653;51.742;-1.256;2023-04-09T13:41:19;19;17;
62054;PMS5003;48653;51.742;-1.256;2023-04-09T13:43:45;19;19;
62054;PMS5003;48653;51.742;-1.256;2023-04-09T13:46:10;22;21;
62054;PMS5003;48653;51.742;-1.256;2023-04-09T13:48:36;20;19;
62054;PMS5003;48653;51.742;-1.256;2023-04-09T13:51:01;20;17;
62054;PMS5003;48653;51.742;-1.256;2023-04-09T13:53:26;22;19;
62054;PMS5003;48653;51.742;-1.256;2023-04-09T13:55:52;21;19;
62054;PMS5003;48653;51.742;-1.256;2023-04-09T13:58:17;20;19;
62054;PMS5003;48653;51.742;-1.256;2023-04-09T14:00:42;20;17;
62054;PMS5003;48653;51.742;-1.256;2023-04-09T14:03:08;15;14;
62054;PMS5003;48653;51.742;-1.256;2023-04-09T14:05:33;20;20;
62054;PMS5003;48653;51.742;-1.256;2023-04-09T14:07:58;21;19;
62054;PMS5003;48653;51.742;-1.256;2023-04-09T14:10:24;24;18;
62054;PMS5003;48653;51.742;-1.256;2023-04-09T14:12:49;23;22;
62054;PMS5003;48653;51.742;-1.256;2023-04-09T14:15:15;22;20;
62054;PMS5003;48653;51.742;-1.256;2023-04-09T14:17:41;26;20;
62054;PMS5003;48653;51.742;-1.256;2023-04-09T14:20:06;26;24;
62054;PMS5003;48653;51.742;-1.256;2023-04-09T14:22:30;21;20;
62054;PMS5003;48653;51.742;-1.256;2023-04-09T14:24:55;20;20;
62054;PMS5003;48653;51.742;-1.256;2023-04-09T14:27:21;23;22;
62054;PMS5003;48653;51.742;-1.256;2023-04-09T14:29:46;25;24;
62054;PMS5003;48653;51.742;-1.256;2023-04-09T14:32:11;21;16;
62054;PMS5003;48653;51.742;-1.256;2023-04-09T14:34:37;19;18;
62054;PMS5003;48653;51.742;-1.256;2023-04-09T14:37:02;19;18;
62054;PMS5003;48653;51.742;-1.256;2023-04-09T14:39:27;21;18;
62054;PMS5003;48653;51.742;-1.256;2023-04-09T14:41:53;18;16;
62054;PMS5003;48653;51.742;-1.256;2023-04-09T14:44:18;16;16;
62054;PMS5003;48653;51.742;-1.256;2023-04-09T14:46:43;16;16;
62054;PMS5003;48653;51.742;-1.256;2023-04-09T14:49:08;21;18;
62054;PMS5003;48653;51.742;-1.256;2023-04-09T14:51:33;17;14;
62054;PMS5003;48653;51.742;-1.256;2023-04-09T14:53:58;18;18;
62054;PMS5003;48653;51.742;-1.256;2023-04-09T14:56:24;21;17;
62054;PMS5003;48653;51.742;-1.256;2023-04-09T14:58:49;22;20;
62054;PMS5003;48653;51.742;-1.256;2023-04-09T15:01:15;16;16;
62054;PMS5003;48653;51.742;-1.256;2023-04-09T15:03:40;23;18;
62054;PMS5003;48653;51.742;-1.256;2023-04-09T15:06:05;18;16;
62054;PMS5003;48653;51.742;-1.256;2023-04-09T15:08:31;22;20;
62054;PMS5003;48653;51.742;-1.256;2023-04-09T15:10:57;27;22;
62054;PMS5003;48653;51.742;-1.256;2023-04-09T15:13:22;20;17;
62054;PMS5003;48653;51.742;-1.256;2023-04-09T15:15:47;21;20;
62054;PMS5003;48653;51.742;-1.256;2023-04-09T15:18:12;19;17;
62054;PMS5003;48653;51.742;-1.256;2023-04-09T15:20:38;17;17;
62054;PMS5003;48653;51.742;-1.256;2023-04-09T15:23:03;20;18;
62054;PMS5003;48653;51.742;-1.256;2023-04-09T15:25:29;18;15;
62054;PMS5003;48653;51.742;-1.256;2023-04-09T15:27:54;19;17;
62054;PMS5003;48653;51.742;-1.256;2023-04-09T15:30:19;20;19;
62054;PMS5003;48653;51.742;-1.256;2023-04-09T15:32:44;17;17;
62054;PMS5003;48653;51.742;-1.256;2023-04-09T15:35:10;21;19;
62054;PMS5003;48653;51.742;-1.256;2023-04-09T15:37:35;16;16;
62054;PMS5003;48653;51.742;-1.256;2023-04-09T15:40:02;18;15;
62054;PMS5003;48653;51.742;-1.256;2023-04-09T15:42:26;21;21;
62054;PMS5003;48653;51.742;-1.256;2023-04-09T15:44:51;16;16;
62054;PMS5003;48653;51.742;-1.256;2023-04-09T15:47:17;17;16;
62054;PMS5003;48653;51.742;-1.256;2023-04-09T15:49:42;20;19;
62054;PMS5003;48653;51.742;-1.256;2023-04-09T15:52:07;20;18;
62054;PMS5003;48653;51.742;-1.256;2023-04-09T15:54:33;18;17;
62054;PMS5003;48653;51.742;-1.256;2023-04-09T15:56:58;17;15;
62054;PMS5003;48653;51.742;-1.256;2023-04-09T15:59:23;16;14;
62054;PMS5003;48653;51.742;-1.256;2023-04-09T16:01:49;20;18;